createdAt,value
2024-01-21T00:01:33.995Z,11.98
2024-01-21T00:04:36.429Z,14.50
2024-01-21T00:07:40.566Z,20.63
2024-01-21T00:10:43.083Z,10.05
2024-01-21T00:13:45.581Z,11.20
2024-01-21T00:16:48.250Z,22.08
2024-01-21T00:19:50.577Z,14.30
2024-01-21T00:22:53.003Z,13.20
2024-01-21T00:25:55.591Z,18.50
2024-01-21T00:29:02.122Z,17.35
2024-01-21T00:32:04.641Z,9.65
2024-01-21T00:35:07.572Z,17.52
2024-01-21T00:38:10.590Z,7.40
2024-01-21T00:41:16.478Z,9.18
2024-01-21T00:44:20.107Z,14.17
2024-01-21T00:47:23.371Z,6.85
2024-01-21T00:50:25.939Z,6.80
2024-01-21T00:53:28.613Z,4.27
2024-01-21T00:56:30.933Z,6.97
2024-01-21T00:59:33.176Z,15.82
2024-01-21T01:02:35.587Z,7.68
2024-01-21T01:05:38.140Z,7.68
2024-01-21T01:08:40.642Z,5.82
2024-01-21T01:11:43.232Z,5.82
2024-01-21T01:14:45.699Z,6.13
2024-01-21T01:17:48.872Z,12.57
2024-01-21T01:20:51.469Z,7.55
2024-01-21T01:23:53.906Z,5.60
2024-01-21T01:26:56.136Z,6.85
2024-01-21T01:29:58.466Z,7.65
2024-01-21T01:33:00.871Z,7.00
2024-01-21T01:36:03.823Z,9.25
2024-01-21T01:39:08.544Z,8.93
2024-01-21T01:42:10.888Z,12.98
2024-01-21T01:45:13.167Z,6.10
2024-01-21T01:48:15.845Z,6.00
2024-01-21T01:51:18.664Z,9.13
2024-01-21T01:54:24.395Z,5.23
2024-01-21T01:57:26.835Z,4.53
2024-01-21T02:00:30.526Z,4.47
2024-01-21T02:03:33.517Z,6.38
2024-01-21T02:06:36.118Z,3.05
2024-01-21T02:09:38.666Z,4.15
2024-01-21T02:12:44.921Z,5.97
2024-01-21T02:15:47.174Z,7.97
2024-01-21T02:18:51.607Z,3.85
2024-01-21T02:21:55.413Z,7.53
2024-01-21T02:24:57.663Z,5.40
2024-01-21T02:27:59.883Z,6.00
2024-01-21T02:31:02.078Z,6.25
2024-01-21T02:34:04.626Z,4.50
2024-01-21T02:37:07.033Z,5.00
2024-01-21T02:40:09.924Z,4.40
2024-01-21T02:43:12.125Z,5.95
2024-01-21T02:46:17.521Z,4.63
2024-01-21T02:49:20.186Z,5.53
2024-01-21T02:52:22.492Z,5.93
2024-01-21T02:55:24.709Z,3.50
2024-01-21T02:58:26.931Z,7.50
2024-01-21T03:01:29.126Z,4.10
2024-01-21T03:04:31.310Z,5.40
2024-01-21T03:07:33.484Z,8.77
2024-01-21T03:10:35.762Z,4.25
2024-01-21T03:13:37.941Z,8.77
2024-01-21T03:16:40.051Z,5.30
2024-01-21T03:19:42.266Z,5.78
2024-01-21T03:22:44.354Z,2.38
2024-01-21T03:25:46.817Z,4.80
2024-01-21T03:28:49.274Z,4.07
2024-01-21T03:31:51.365Z,9.07
2024-01-21T03:34:53.657Z,4.70
2024-01-21T03:37:55.808Z,11.75
2024-01-21T03:40:57.878Z,11.80
2024-01-21T03:44:00.092Z,3.85
2024-01-21T03:47:02.204Z,6.23
2024-01-21T03:50:05.919Z,13.48
2024-01-21T03:53:08.824Z,15.30
2024-01-21T03:56:19.272Z,20.30
2024-01-21T03:59:21.482Z,7.70
2024-01-21T04:02:25.270Z,9.00
2024-01-21T04:05:27.399Z,23.15
2024-01-21T04:08:29.553Z,11.23
2024-01-21T04:11:31.633Z,18.17
2024-01-21T04:14:33.883Z,24.00
2024-01-21T04:17:36.307Z,13.73
2024-01-21T04:20:38.638Z,8.57
2024-01-21T04:23:41.584Z,5.40
2024-01-21T04:26:43.867Z,6.40
2024-01-21T04:29:46.407Z,4.68
2024-01-21T04:32:49.241Z,4.50
2024-01-21T04:35:52.635Z,7.95
2024-01-21T04:38:55.177Z,5.18
2024-01-21T04:41:57.411Z,7.40
2024-01-21T04:44:59.705Z,5.82
2024-01-21T04:48:02.035Z,7.30
2024-01-21T04:51:04.538Z,5.22
2024-01-21T04:54:06.748Z,11.23
2024-01-21T04:57:08.968Z,9.53
2024-01-21T05:00:11.858Z,8.43
2024-01-21T05:03:14.111Z,6.63
2024-01-21T05:06:16.351Z,10.52
2024-01-21T05:09:18.564Z,16.63
2024-01-21T05:12:20.848Z,12.13
2024-01-21T05:15:23.245Z,6.22
2024-01-21T05:18:25.817Z,5.30
2024-01-21T05:21:28.104Z,7.13
2024-01-21T05:24:30.428Z,10.93
2024-01-21T05:27:33.393Z,6.33
2024-01-21T05:30:35.817Z,6.72
2024-01-21T05:33:39.566Z,9.27
2024-01-21T05:36:43.517Z,7.80
2024-01-21T05:39:45.927Z,5.88
2024-01-21T05:42:48.414Z,6.30
2024-01-21T05:45:50.587Z,5.82
2024-01-21T05:48:52.976Z,7.83
2024-01-21T05:51:55.222Z,5.28
2024-01-21T05:54:57.576Z,7.38
2024-01-21T05:58:00.341Z,12.03
2024-01-21T06:01:03.134Z,5.45
2024-01-21T06:04:05.371Z,4.18
2024-01-21T06:07:08.577Z,4.95
2024-01-21T06:10:11.392Z,11.77
2024-01-21T06:13:13.617Z,6.20
2024-01-21T06:16:19.014Z,4.07
2024-01-21T06:19:21.253Z,6.90
2024-01-21T06:22:23.504Z,5.55
2024-01-21T06:25:25.673Z,5.70
2024-01-21T06:28:27.890Z,11.47
2024-01-21T06:31:30.300Z,13.23
2024-01-21T06:34:32.790Z,9.07
2024-01-21T06:37:35.268Z,6.03
2024-01-21T06:40:37.588Z,5.38
2024-01-21T06:43:39.886Z,4.85
2024-01-21T06:46:42.340Z,13.57
2024-01-21T06:49:44.641Z,8.57
2024-01-21T06:52:47.176Z,9.18
2024-01-21T06:55:49.345Z,10.73
2024-01-21T06:58:51.479Z,6.60
2024-01-21T07:01:54.025Z,7.97
2024-01-21T07:04:56.612Z,7.63
2024-01-21T07:07:59.225Z,5.05
2024-01-21T07:11:01.511Z,7.00
2024-01-21T07:14:05.097Z,9.88
2024-01-21T07:17:07.586Z,4.95
2024-01-21T07:20:13.512Z,13.20
2024-01-21T07:23:16.293Z,13.07
2024-01-21T07:26:20.449Z,12.95
2024-01-21T07:29:22.869Z,18.60
2024-01-21T07:32:25.080Z,20.75
2024-01-21T07:35:27.351Z,18.27
2024-01-21T07:38:29.527Z,26.00
2024-01-21T07:41:32.616Z,15.75
2024-01-21T07:44:34.838Z,15.73
2024-01-21T07:47:37.091Z,13.60
2024-01-21T07:50:39.422Z,6.87
2024-01-21T07:53:41.927Z,6.70
2024-01-21T07:56:44.193Z,21.52
2024-01-21T08:00:04.894Z,6.17
2024-01-21T08:03:07.985Z,4.05
2024-01-21T08:06:11.054Z,5.03
2024-01-21T08:09:14.047Z,5.90
2024-01-21T08:12:18.750Z,8.75
2024-01-21T08:15:21.202Z,3.92
2024-01-21T08:18:24.972Z,7.00
2024-01-21T08:21:27.502Z,5.73
2024-01-21T08:24:30.124Z,3.33
2024-01-21T08:27:32.552Z,6.32
2024-01-21T08:30:34.821Z,6.50
2024-01-21T08:33:37.592Z,3.50
2024-01-21T08:36:40.230Z,6.45
2024-01-21T08:39:45.499Z,4.65
2024-01-21T08:42:49.863Z,4.75
2024-01-21T08:45:52.309Z,6.00
2024-01-21T08:48:56.007Z,6.32
2024-01-21T08:51:59.241Z,6.63
2024-01-21T08:55:01.552Z,10.07
2024-01-21T08:58:04.091Z,8.27
2024-01-21T09:01:06.786Z,11.93
2024-01-21T09:04:10.628Z,11.43
2024-01-21T09:07:13.729Z,11.45
2024-01-21T09:10:19.528Z,8.23
2024-01-21T09:13:21.650Z,6.45
2024-01-21T09:16:24.617Z,3.95
2024-01-21T09:19:26.914Z,6.20
2024-01-21T09:22:29.797Z,9.23
2024-01-21T09:25:32.588Z,8.52
2024-01-21T09:28:37.952Z,11.57
2024-01-21T09:31:41.558Z,7.07
2024-01-21T09:34:44.997Z,26.23
2024-01-21T09:37:47.797Z,10.07
2024-01-21T09:41:09.208Z,11.55
2024-01-21T09:44:12.134Z,8.43
2024-01-21T09:47:15.581Z,11.00
2024-01-21T09:50:21.168Z,12.40
2024-01-21T09:53:23.855Z,13.60
2024-01-21T09:56:26.222Z,12.70
2024-01-21T09:59:28.908Z,11.93
2024-01-21T10:02:31.971Z,7.10
2024-01-21T10:05:34.232Z,13.07
2024-01-21T10:08:47.204Z,9.63
2024-01-21T10:11:59.393Z,11.43
2024-01-21T10:15:03.521Z,10.48
2024-01-21T10:18:06.793Z,13.52
2024-01-21T10:21:10.495Z,11.77
2024-01-21T10:24:12.735Z,15.10
2024-01-21T10:27:16.973Z,19.10
2024-01-21T10:30:19.843Z,9.20
2024-01-21T10:33:22.383Z,9.73
2024-01-21T10:36:27.616Z,7.60
2024-01-21T10:39:32.555Z,8.52
2024-01-21T10:42:36.337Z,12.00
2024-01-21T10:45:38.690Z,12.63
2024-01-21T10:48:42.689Z,13.82
2024-01-21T10:51:46.482Z,18.33
2024-01-21T10:54:49.378Z,15.60
2024-01-21T10:57:52.313Z,9.07
2024-01-21T11:00:59.036Z,10.93
2024-01-21T11:04:08.428Z,8.83
2024-01-21T11:07:14.993Z,10.32
2024-01-21T11:10:19.605Z,11.18
2024-01-21T11:13:50.808Z,7.60
2024-01-21T11:16:55.598Z,12.23
2024-01-21T11:19:58.144Z,14.30
2024-01-21T11:23:03.406Z,11.00
2024-01-21T11:26:06.152Z,10.37
2024-01-21T11:29:32.065Z,12.27
2024-01-21T11:32:34.795Z,15.18
2024-01-21T11:35:38.070Z,9.47
2024-01-21T11:38:41.871Z,14.13
2024-01-21T11:41:45.378Z,10.57
2024-01-21T11:44:47.680Z,16.70
2024-01-21T11:47:59.381Z,22.65
2024-01-21T11:51:01.943Z,10.02
2024-01-21T11:54:04.692Z,13.95
2024-01-21T11:57:08.692Z,14.20
2024-01-21T12:00:12.767Z,15.07
2024-01-21T12:03:35.696Z,17.98
2024-01-21T12:06:41.444Z,15.73
2024-01-21T12:09:49.411Z,13.20
2024-01-21T12:12:54.303Z,21.73
2024-01-21T12:15:56.543Z,17.98
2024-01-21T12:18:59.049Z,12.07
2024-01-21T12:22:01.416Z,16.48
2024-01-21T12:25:04.848Z,11.48
2024-01-21T12:28:07.004Z,15.60
2024-01-21T12:31:12.291Z,10.68
2024-01-21T12:34:15.503Z,13.90
2024-01-21T12:37:19.118Z,17.73
2024-01-21T12:40:22.817Z,10.55
2024-01-21T12:43:25.159Z,18.55
2024-01-21T12:46:27.508Z,20.58
2024-01-21T12:49:29.840Z,16.38
2024-01-21T12:52:32.241Z,16.38
2024-01-21T12:55:34.554Z,14.20
2024-01-21T12:58:37.933Z,20.17
2024-01-21T13:01:40.092Z,14.40
2024-01-21T13:04:42.695Z,13.95
2024-01-21T13:07:45.095Z,15.23
2024-01-21T13:10:47.534Z,17.35
2024-01-21T13:13:49.837Z,22.48
2024-01-21T13:16:52.456Z,21.63
2024-01-21T13:19:55.106Z,18.67
2024-01-21T13:22:57.625Z,18.30
2024-01-21T13:26:00.257Z,12.55
2024-01-21T13:29:08.683Z,14.27
2024-01-21T13:32:11.104Z,13.07
2024-01-21T13:35:14.035Z,19.65
2024-01-21T13:38:27.616Z,17.70
2024-01-21T13:41:30.058Z,18.73
2024-01-21T13:44:35.081Z,13.40
2024-01-21T13:47:37.465Z,20.40
2024-01-21T13:50:44.441Z,13.55
2024-01-21T13:53:49.234Z,17.88
2024-01-21T13:56:51.666Z,15.02
2024-01-21T13:59:53.760Z,19.90
2024-01-21T14:02:57.032Z,16.00
2024-01-21T14:06:00.531Z,10.73
2024-01-21T14:09:02.791Z,17.53
2024-01-21T14:12:05.491Z,24.92
2024-01-21T14:15:08.115Z,14.45
2024-01-21T14:18:10.843Z,17.90
2024-01-21T14:21:13.842Z,19.70
2024-01-21T14:24:16.015Z,15.00
2024-01-21T14:27:18.852Z,13.98
2024-01-21T14:30:35.479Z,24.73
2024-01-21T14:33:38.946Z,26.88
2024-01-21T14:36:43.491Z,20.70
2024-01-21T14:39:46.421Z,15.47
2024-01-21T14:42:48.968Z,19.30
2024-01-21T14:45:51.284Z,19.42
2024-01-21T14:48:53.918Z,21.27
2024-01-21T14:51:56.312Z,19.27
2024-01-21T14:54:58.867Z,19.48
2024-01-21T14:58:02.896Z,18.85
2024-01-21T15:01:05.744Z,18.80
2024-01-21T15:04:08.285Z,21.45
2024-01-21T15:07:11.174Z,16.30
2024-01-21T15:10:13.806Z,19.13
2024-01-21T15:13:27.186Z,28.10
2024-01-21T15:16:29.347Z,26.73
2024-01-21T15:19:32.654Z,26.02
2024-01-21T15:22:35.018Z,13.18
2024-01-21T15:25:37.260Z,35.13
2024-01-21T15:28:39.392Z,38.13
2024-01-21T15:31:44.576Z,27.40
2024-01-21T15:34:48.006Z,19.80
2024-01-21T15:37:51.424Z,17.42
2024-01-21T15:40:53.551Z,25.37
2024-01-21T15:43:55.936Z,19.77
2024-01-21T15:46:58.037Z,8.68
2024-01-21T15:50:00.192Z,19.17
2024-01-21T15:53:02.422Z,14.88
2024-01-21T15:56:04.843Z,14.00
2024-01-21T15:59:07.085Z,22.95
2024-01-21T16:02:19.639Z,13.47
2024-01-21T16:05:26.326Z,14.95
2024-01-21T16:08:28.722Z,11.40
2024-01-21T16:11:32.191Z,12.23
2024-01-21T16:14:34.762Z,10.07
2024-01-21T16:17:37.185Z,14.57
2024-01-21T16:20:40.986Z,16.90
2024-01-21T16:23:44.162Z,12.30
2024-01-21T16:26:46.939Z,19.88
2024-01-21T16:29:49.211Z,10.90
2024-01-21T16:32:51.638Z,15.60
2024-01-21T16:35:54.042Z,16.20
2024-01-21T16:38:56.332Z,16.05
2024-01-21T16:41:58.525Z,21.40
2024-01-21T16:45:02.082Z,30.17
2024-01-21T16:48:04.747Z,26.45
2024-01-21T16:51:11.201Z,21.98
2024-01-21T16:54:14.452Z,13.55
2024-01-21T16:57:17.122Z,12.50
2024-01-21T17:00:23.860Z,30.75
2024-01-21T17:03:29.994Z,15.67
2024-01-21T17:06:32.834Z,22.30
2024-01-21T17:09:35.381Z,21.77
2024-01-21T17:12:40.054Z,22.60
2024-01-21T17:15:45.203Z,16.30
2024-01-21T17:19:00.024Z,15.20
2024-01-21T17:22:02.541Z,19.05
2024-01-21T17:25:06.135Z,17.85
2024-01-21T17:28:08.887Z,16.77
2024-01-21T17:31:11.285Z,19.05
2024-01-21T17:34:15.016Z,22.00
2024-01-21T17:37:18.921Z,21.85
2024-01-21T17:40:21.262Z,18.23
2024-01-21T17:43:23.633Z,20.97
2024-01-21T17:46:26.137Z,18.60
2024-01-21T17:49:30.362Z,28.15
2024-01-21T17:52:33.359Z,15.40
2024-01-21T17:55:35.901Z,15.18
2024-01-21T17:58:38.211Z,22.05
2024-01-21T18:01:42.271Z,13.73
2024-01-21T18:04:45.483Z,14.20
2024-01-21T18:07:48.609Z,20.20
2024-01-21T18:10:52.424Z,10.95
2024-01-21T18:13:54.588Z,10.03
2024-01-21T18:16:56.781Z,25.02
2024-01-21T18:19:59.214Z,9.38
2024-01-21T18:23:13.071Z,17.60
2024-01-21T18:26:35.598Z,14.45
2024-01-21T18:29:37.912Z,13.95
2024-01-21T18:32:40.307Z,20.20
2024-01-21T18:35:44.928Z,21.27
2024-01-21T18:38:47.886Z,27.45
2024-01-21T18:41:50.447Z,19.95
2024-01-21T18:44:52.975Z,17.13
2024-01-21T18:47:56.464Z,30.98
2024-01-21T18:50:59.249Z,22.75
2024-01-21T18:54:01.559Z,19.52
2024-01-21T18:57:06.504Z,32.67
2024-01-21T19:00:09.933Z,12.88
2024-01-21T19:03:13.318Z,10.27
2024-01-21T19:06:20.170Z,14.30
2024-01-21T19:09:24.504Z,18.40
2024-01-21T19:12:27.486Z,10.32
2024-01-21T19:15:31.130Z,8.57
2024-01-21T19:18:34.007Z,14.57
2024-01-21T19:21:37.819Z,16.30
2024-01-21T19:24:41.802Z,20.48
2024-01-21T19:27:44.632Z,15.82
2024-01-21T19:30:47.665Z,14.88
2024-01-21T19:33:52.996Z,23.02
2024-01-21T19:36:55.946Z,20.23
2024-01-21T19:39:58.947Z,15.48
2024-01-21T19:43:01.917Z,24.85
2024-01-21T19:46:06.652Z,11.57
2024-01-21T19:49:10.189Z,30.92
2024-01-21T19:52:13.498Z,14.88
2024-01-21T19:55:15.979Z,15.98
2024-01-21T19:58:18.342Z,17.65
2024-01-21T20:01:20.808Z,33.63
2024-01-21T20:04:23.936Z,24.05
2024-01-21T20:07:26.649Z,35.30
2024-01-21T20:10:29.277Z,30.55
2024-01-21T20:13:34.486Z,38.63
2024-01-21T20:16:38.042Z,34.83
2024-01-21T20:19:41.107Z,46.03
2024-01-21T20:22:43.563Z,38.05
2024-01-21T20:25:46.380Z,46.28
2024-01-21T20:28:48.913Z,26.23
2024-01-21T20:31:51.161Z,21.40
2024-01-21T20:34:55.082Z,17.73
2024-01-21T20:37:59.052Z,16.80
2024-01-21T20:41:01.649Z,35.85
2024-01-21T20:44:04.682Z,21.70
2024-01-21T20:47:07.522Z,28.33
2024-01-21T20:50:11.824Z,16.85
2024-01-21T20:53:14.456Z,17.48
2024-01-21T20:56:17.722Z,14.35
2024-01-21T20:59:20.433Z,17.65
2024-01-21T21:02:22.891Z,16.65
2024-01-21T21:05:29.593Z,17.50
2024-01-21T21:08:35.638Z,22.70
2024-01-21T21:11:38.061Z,17.55
2024-01-21T21:14:44.507Z,11.27
2024-01-21T21:17:47.009Z,20.77
2024-01-21T21:20:49.422Z,20.77
2024-01-21T21:23:51.852Z,28.17
2024-01-21T21:26:54.328Z,19.73
2024-01-21T21:29:56.701Z,15.43
2024-01-21T21:33:02.707Z,33.65
2024-01-21T21:36:05.663Z,17.27
2024-01-21T21:39:07.959Z,17.60
2024-01-21T21:42:10.487Z,14.73
2024-01-21T21:45:15.148Z,15.57
2024-01-21T21:48:18.380Z,14.70
2024-01-21T21:51:23.028Z,24.50
2024-01-21T21:54:27.539Z,16.63
2024-01-21T21:57:31.053Z,22.30
2024-01-21T22:00:35.756Z,14.13
2024-01-21T22:03:39.003Z,14.45
2024-01-21T22:06:42.216Z,10.77
2024-01-21T22:09:44.612Z,13.10
2024-01-21T22:12:47.136Z,15.75
2024-01-21T22:15:49.562Z,8.02
2024-01-21T22:18:51.871Z,17.93
2024-01-21T22:21:54.158Z,17.77
2024-01-21T22:24:56.428Z,12.35
2024-01-21T22:27:59.165Z,15.20
2024-01-21T22:31:01.573Z,26.95
2024-01-21T22:34:06.548Z,19.85
2024-01-21T22:37:09.185Z,21.30
2024-01-21T22:40:12.594Z,22.07
2024-01-21T22:43:14.835Z,18.65
2024-01-21T22:46:18.339Z,19.65
2024-01-21T22:49:21.025Z,16.67
2024-01-21T22:52:24.455Z,18.45
2024-01-21T22:55:26.816Z,19.73
2024-01-21T22:58:29.620Z,19.73
2024-01-21T23:01:32.046Z,16.20
2024-01-21T23:04:34.466Z,27.20
2024-01-21T23:07:36.895Z,15.23
2024-01-21T23:10:39.737Z,13.93
2024-01-21T23:13:42.675Z,12.60
2024-01-21T23:16:46.204Z,9.23
2024-01-21T23:19:48.885Z,10.83
2024-01-21T23:22:51.177Z,11.98
2024-01-21T23:25:53.550Z,14.88
2024-01-21T23:28:56.078Z,17.98
2024-01-21T23:31:58.410Z,11.45
2024-01-21T23:35:00.928Z,10.10
2024-01-21T23:38:04.023Z,8.93
2024-01-21T23:41:07.633Z,9.10
2024-01-21T23:44:09.868Z,11.50
2024-01-21T23:47:12.209Z,11.05
2024-01-21T23:50:14.603Z,11.47
2024-01-21T23:53:18.803Z,17.17
2024-01-21T23:56:20.945Z,7.90
2024-01-21T23:59:23.217Z,14.15
